Mc Grath, Minnesota
Current Conditions -  °F | °C
As of 2:07 AM on Monday 26 Jan 2015 (Local Time) from KHZX Reporting Station
Overcast Overcast  
Wind Chill: 12°   Ceiling: 2600
Heat Index: 23°   Visibility: 10mi
Dew Point: 21°   Wind: 10mph
Humidity: 93%   Direction: 170°S
Pressure: 29.75"   Gusts: NA
Location:  46.3008°N, 93.2513°W
Report Text: KHZX 260807Z AUTO 17009KT 10SM SCT005 SCT014 OVC026 M05/M06 A2975 RMK AO2
Loading
Personal Weather Stations






























Interactive Weather Map New forecast layout! Learn more

10-Day Weather Forecast

Advertisements
Track Severe Weather on mobile